Terminal Aerodrome Forecast
Issued by NWS Pueblo, CO

Home | Current Version | Previous Version | Text Only | Print | Product List | Glossary On
Versions: 1 2 3 4 5 6 7 8 9 10 11 12 13 14 15 16 17 18
000
FTUS45 KPUB 290520
TAFALS
TAF
KALS 290520Z 2906/3006 VRB06KT P6SM FEW120
     FM291800 26010KT P6SM FEW060 SCT150
     FM300100 11012KT P6SM SCT060 BKN100
     FM300400 VRB06KT P6SM FEW060 BKN100=

USA.gov is the U.S. government's official web portal to all federal, state and local government web resources and services.